Terminal Aerodrome Forecast
Issued by NWS Atlanta, GA

Home | Current Version | Previous Version | Text Only | Print | Product List | Glossary On
Versions: 1 2 3 4 5 6 7 8 9 10 11 12 13 14 15 16 17 18 19 20
000
FTUS42 KFFC 291731
TAFCSG
TAF
KCSG 291731Z 2918/3018 33006KT P6SM VCSH SCT050
      TEMPO 2919/2923 VRB10G20KT 6SM -TSRA BKN040CB
     FM300100 02004KT P6SM SCT100 BKN250
     FM301400 02004KT P6SM FEW040=

USA.gov is the U.S. government's official web portal to all federal, state and local government web resources and services.